sensor_id;sensor_type;location;lat;lon;timestamp;pressure;altitude;pressure_sealevel;temperature;humidity
56721;BME280;53183;47.412;18.884;2023-02-13T00:00:35;101336.28;;;-0.14;94.65
56721;BME280;53183;47.412;18.884;2023-02-13T00:03:03;101329.34;;;-0.15;94.52
56721;BME280;53183;47.412;18.884;2023-02-13T00:05:30;101323.41;;;-0.08;93.33
56721;BME280;53183;47.412;18.884;2023-02-13T00:07:58;101326.81;;;-0.12;93.69
56721;BME280;53183;47.412;18.884;2023-02-13T00:10:25;101324.34;;;-0.06;93.26
56721;BME280;53183;47.412;18.884;2023-02-13T00:12:52;101334.81;;;-0.02;93.07
56721;BME280;53183;47.412;18.884;2023-02-13T00:15:19;101336.47;;;-0.04;92.93
56721;BME280;53183;47.412;18.884;2023-02-13T00:17:47;101329.53;;;-0.05;92.78
56721;BME280;53183;47.412;18.884;2023-02-13T00:20:14;101334.63;;;-0.11;92.73
56721;BME280;53183;47.412;18.884;2023-02-13T00:22:41;101334.66;;;-0.09;92.15
56721;BME280;53183;47.412;18.884;2023-02-13T00:25:08;101339.88;;;-0.08;92.61
56721;BME280;53183;47.412;18.884;2023-02-13T00:27:35;101341.53;;;-0.13;92.40
56721;BME280;53183;47.412;18.884;2023-02-13T00:30:03;101343.34;;;-0.09;92.07
56721;BME280;53183;47.412;18.884;2023-02-13T00:32:31;101345.94;;;-0.07;92.11
56721;BME280;53183;47.412;18.884;2023-02-13T00:34:58;101354.47;;;-0.14;91.79
56721;BME280;53183;47.412;18.884;2023-02-13T00:37:25;101344.12;;;-0.13;91.46
56721;BME280;53183;47.412;18.884;2023-02-13T00:39:53;101344.03;;;-0.17;91.67
56721;BME280;53183;47.412;18.884;2023-02-13T00:42:20;101340.81;;;-0.04;90.66
56721;BME280;53183;47.412;18.884;2023-02-13T00:44:50;101335.41;;;-0.16;90.74
56721;BME280;53183;47.412;18.884;2023-02-13T00:47:18;101337.88;;;-0.22;90.94
56721;BME280;53183;47.412;18.884;2023-02-13T00:49:45;101339.41;;;-0.31;91.29
56721;BME280;53183;47.412;18.884;2023-02-13T00:52:12;101337.50;;;-0.41;91.94
56721;BME280;53183;47.412;18.884;2023-02-13T00:54:40;101346.13;;;-0.42;92.12
56721;BME280;53183;47.412;18.884;2023-02-13T00:57:07;101348.69;;;-0.43;92.18
56721;BME280;53183;47.412;18.884;2023-02-13T00:59:34;101345.13;;;-0.49;92.12
56721;BME280;53183;47.412;18.884;2023-02-13T01:02:01;101348.69;;;-0.43;91.85
56721;BME280;53183;47.412;18.884;2023-02-13T01:04:30;101350.22;;;-0.53;92.01
56721;BME280;53183;47.412;18.884;2023-02-13T01:06:57;101339.81;;;-0.53;91.93
56721;BME280;53183;47.412;18.884;2023-02-13T01:09:24;101348.31;;;-0.62;92.52
56721;BME280;53183;47.412;18.884;2023-02-13T01:11:51;101338.56;;;-0.72;93.06
56721;BME280;53183;47.412;18.884;2023-02-13T01:14:18;101335.78;;;-0.80;93.42
56721;BME280;53183;47.412;18.884;2023-02-13T01:16:47;101337.34;;;-0.88;93.73
56721;BME280;53183;47.412;18.884;2023-02-13T01:19:14;101333.69;;;-0.96;93.82
56721;BME280;53183;47.412;18.884;2023-02-13T01:21:42;101324.94;;;-1.01;94.13
56721;BME280;53183;47.412;18.884;2023-02-13T01:24:10;101317.03;;;-1.07;94.42
56721;BME280;53183;47.412;18.884;2023-02-13T01:26:37;101320.47;;;-1.08;93.38
56721;BME280;53183;47.412;18.884;2023-02-13T01:29:05;101323.72;;;-1.17;94.41
56721;BME280;53183;47.412;18.884;2023-02-13T01:31:32;101322.53;;;-1.30;95.06
56721;BME280;53183;47.412;18.884;2023-02-13T01:34:00;101312.78;;;-1.40;96.01
56721;BME280;53183;47.412;18.884;2023-02-13T01:36:27;101318.84;;;-1.39;95.74
56721;BME280;53183;47.412;18.884;2023-02-13T01:38:57;101316.94;;;-1.47;96.46
56721;BME280;53183;47.412;18.884;2023-02-13T01:41:26;101320.31;;;-1.51;96.49
56721;BME280;53183;47.412;18.884;2023-02-13T01:43:54;101314.28;;;-1.50;96.25
56721;BME280;53183;47.412;18.884;2023-02-13T01:46:30;101311.59;;;-1.54;96.24
56721;BME280;53183;47.412;18.884;2023-02-13T01:49:09;101314.03;;;-1.60;96.68
56721;BME280;53183;47.412;18.884;2023-02-13T01:51:39;101315.69;;;-1.62;97.00
56721;BME280;53183;47.412;18.884;2023-02-13T01:54:29;101312.16;;;-1.66;97.52
56721;BME280;53183;47.412;18.884;2023-02-13T01:57:05;101314.06;;;-1.59;97.39
56721;BME280;53183;47.412;18.884;2023-02-13T01:59:46;101313.94;;;-1.63;97.38
56721;BME280;53183;47.412;18.884;2023-02-13T02:02:16;101312.13;;;-1.68;97.62
56721;BME280;53183;47.412;18.884;2023-02-13T02:04:45;101305.16;;;-1.70;97.89
56721;BME280;53183;47.412;18.884;2023-02-13T02:07:20;101311.31;;;-1.65;97.63
56721;BME280;53183;47.412;18.884;2023-02-13T02:09:51;101313.88;;;-1.67;97.73
56721;BME280;53183;47.412;18.884;2023-02-13T02:12:30;101313.69;;;-1.74;97.99
56721;BME280;53183;47.412;18.884;2023-02-13T02:15:00;101315.50;;;-1.70;98.29
56721;BME280;53183;47.412;18.884;2023-02-13T02:17:29;101308.44;;;-1.77;98.56
56721;BME280;53183;47.412;18.884;2023-02-13T02:43:07;101312.09;;;-2.01;98.60
56721;BME280;53183;47.412;18.884;2023-02-13T02:57:21;101310.09;;;-2.13;99.33
56721;BME280;53183;47.412;18.884;2023-02-13T02:59:52;101314.34;;;-2.15;99.72
56721;BME280;53183;47.412;18.884;2023-02-13T03:02:39;101307.38;;;-2.17;100.00
56721;BME280;53183;47.412;18.884;2023-02-13T03:05:30;101304.91;;;-2.13;100.00
56721;BME280;53183;47.412;18.884;2023-02-13T03:08:18;101307.56;;;-2.09;99.80
56721;BME280;53183;47.412;18.884;2023-02-13T03:11:05;101308.34;;;-2.14;99.54
56721;BME280;53183;47.412;18.884;2023-02-13T03:13:52;101311.75;;;-2.15;99.29
56721;BME280;53183;47.412;18.884;2023-02-13T03:16:23;101314.31;;;-2.16;99.15
56721;BME280;53183;47.412;18.884;2023-02-13T03:23:05;101311.66;;;-2.18;98.89
56721;BME280;53183;47.412;18.884;2023-02-13T03:28:37;101295.25;;;-2.18;98.87
56721;BME280;53183;47.412;18.884;2023-02-13T03:34:14;101292.47;;;-2.24;98.58
56721;BME280;53183;47.412;18.884;2023-02-13T03:39:42;101293.94;;;-2.34;99.35
56721;BME280;53183;47.412;18.884;2023-02-13T03:42:18;101301.78;;;-2.32;99.24
56721;BME280;53183;47.412;18.884;2023-02-13T03:45:21;101299.88;;;-2.38;99.73
56721;BME280;53183;47.412;18.884;2023-02-13T03:48:09;101305.16;;;-2.35;99.50
56721;BME280;53183;47.412;18.884;2023-02-13T03:50:58;101293.84;;;-2.37;99.41
56721;BME280;53183;47.412;18.884;2023-02-13T03:53:28;101290.41;;;-2.38;99.53
56721;BME280;53183;47.412;18.884;2023-02-13T03:55:58;101289.50;;;-2.40;99.42
56721;BME280;53183;47.412;18.884;2023-02-13T03:58:50;101279.88;;;-2.44;99.88
56721;BME280;53183;47.412;18.884;2023-02-13T04:01:37;101286.75;;;-2.44;100.00
56721;BME280;53183;47.412;18.884;2023-02-13T04:04:13;101285.03;;;-2.45;100.00
56721;BME280;53183;47.412;18.884;2023-02-13T04:07:04;101285.88;;;-2.45;100.00
56721;BME280;53183;47.412;18.884;2023-02-13T04:09:36;101291.06;;;-2.45;100.00
56721;BME280;53183;47.412;18.884;2023-02-13T04:12:11;101291.13;;;-2.43;100.00
56721;BME280;53183;47.412;18.884;2023-02-13T04:17:32;101304.28;;;-2.36;99.99
56721;BME280;53183;47.412;18.884;2023-02-13T04:20:02;101304.09;;;-2.42;100.00
56721;BME280;53183;47.412;18.884;2023-02-13T04:22:30;101301.41;;;-2.45;100.00
56721;BME280;53183;47.412;18.884;2023-02-13T04:24:57;101293.63;;;-2.46;100.00
56721;BME280;53183;47.412;18.884;2023-02-13T04:27:26;101296.53;;;-2.34;100.00
56721;BME280;53183;47.412;18.884;2023-02-13T04:29:54;101298.34;;;-2.31;100.00
56721;BME280;53183;47.412;18.884;2023-02-13T04:32:21;101296.50;;;-2.36;100.00
56721;BME280;53183;47.412;18.884;2023-02-13T04:34:48;101297.34;;;-2.37;100.00
56721;BME280;53183;47.412;18.884;2023-02-13T04:37:15;101294.69;;;-2.38;100.00
56721;BME280;53183;47.412;18.884;2023-02-13T04:39:43;101293.84;;;-2.39;100.00
56721;BME280;53183;47.412;18.884;2023-02-13T04:42:10;101288.75;;;-2.34;100.00
56721;BME280;53183;47.412;18.884;2023-02-13T04:44:37;101286.94;;;-2.38;100.00
56721;BME280;53183;47.412;18.884;2023-02-13T04:47:04;101283.50;;;-2.37;100.00
56721;BME280;53183;47.412;18.884;2023-02-13T04:49:32;101285.19;;;-2.39;99.89
56721;BME280;53183;47.412;18.884;2023-02-13T04:51:59;101285.09;;;-2.42;99.74
56721;BME280;53183;47.412;18.884;2023-02-13T04:54:26;101279.84;;;-2.45;99.83
56721;BME280;53183;47.412;18.884;2023-02-13T04:56:53;101279.09;;;-2.41;99.94
56721;BME280;53183;47.412;18.884;2023-02-13T04:59:20;101288.63;;;-2.40;99.68
56721;BME280;53183;47.412;18.884;2023-02-13T05:01:48;101282.41;;;-2.47;99.77
56721;BME280;53183;47.412;18.884;2023-02-13T05:04:15;101283.19;;;-2.49;100.00
56721;BME280;53183;47.412;18.884;2023-02-13T05:06:43;101273.63;;;-2.50;100.00
56721;BME280;53183;47.412;18.884;2023-02-13T05:09:10;101274.50;;;-2.51;100.00
56721;BME280;53183;47.412;18.884;2023-02-13T05:11:38;101284.06;;;-2.49;100.00
56721;BME280;53183;47.412;18.884;2023-02-13T05:14:05;101276.22;;;-2.50;100.00
56721;BME280;53183;47.412;18.884;2023-02-13T05:16:32;101278.72;;;-2.53;100.00
56721;BME280;53183;47.412;18.884;2023-02-13T05:18:59;101279.53;;;-2.56;100.00
56721;BME280;53183;47.412;18.884;2023-02-13T05:21:27;101279.50;;;-2.57;100.00
56721;BME280;53183;47.412;18.884;2023-02-13T05:24:13;101274.22;;;-2.61;100.00
56721;BME280;53183;47.412;18.884;2023-02-13T05:26:40;101274.22;;;-2.61;100.00
56721;BME280;53183;47.412;18.884;2023-02-13T05:29:09;101271.63;;;-2.61;100.00
56721;BME280;53183;47.412;18.884;2023-02-13T05:31:47;101274.28;;;-2.59;100.00
56721;BME280;53183;47.412;18.884;2023-02-13T05:34:15;101271.88;;;-2.53;100.00
56721;BME280;53183;47.412;18.884;2023-02-13T05:36:42;101272.75;;;-2.52;100.00
56721;BME280;53183;47.412;18.884;2023-02-13T05:39:09;101279.50;;;-2.57;100.00
56721;BME280;53183;47.412;18.884;2023-02-13T05:41:36;101273.41;;;-2.60;100.00
56721;BME280;53183;47.412;18.884;2023-02-13T05:44:04;101270.91;;;-2.56;100.00
56721;BME280;53183;47.412;18.884;2023-02-13T05:46:31;101275.25;;;-2.55;100.00
56721;BME280;53183;47.412;18.884;2023-02-13T05:48:58;101272.19;;;-2.41;99.80
56721;BME280;53183;47.412;18.884;2023-02-13T05:51:26;101277.22;;;-2.47;99.63
56721;BME280;53183;47.412;18.884;2023-02-13T05:53:53;101278.69;;;-2.56;100.00
56721;BME280;53183;47.412;18.884;2023-02-13T05:56:20;101286.28;;;-2.61;100.00
56721;BME280;53183;47.412;18.884;2023-02-13T05:58:50;101279.56;;;-2.54;100.00
56721;BME280;53183;47.412;18.884;2023-02-13T06:01:19;101279.53;;;-2.56;100.00
56721;BME280;53183;47.412;18.884;2023-02-13T06:03:48;101279.66;;;-2.51;100.00
56721;BME280;53183;47.412;18.884;2023-02-13T06:06:16;101278.78;;;-2.52;100.00
56721;BME280;53183;47.412;18.884;2023-02-13T06:08:43;101287.63;;;-2.44;100.00
56721;BME280;53183;47.412;18.884;2023-02-13T06:11:10;101287.94;;;-2.33;99.75
56721;BME280;53183;47.412;18.884;2023-02-13T06:13:37;101292.97;;;-2.38;100.00
56721;BME280;53183;47.412;18.884;2023-02-13T06:16:07;101296.41;;;-2.39;100.00
56721;BME280;53183;47.412;18.884;2023-02-13T06:18:35;101290.47;;;-2.34;100.00
56721;BME280;53183;47.412;18.884;2023-02-13T06:21:03;101285.53;;;-2.27;100.00
56721;BME280;53183;47.412;18.884;2023-02-13T06:23:30;101292.91;;;-2.09;99.16
56721;BME280;53183;47.412;18.884;2023-02-13T06:26:05;101297.69;;;-1.91;97.64
56721;BME280;53183;47.412;18.884;2023-02-13T06:28:33;101304.03;;;-1.80;97.37
56721;BME280;53183;47.412;18.884;2023-02-13T06:31:01;101304.28;;;-1.69;97.44
56721;BME280;53183;47.412;18.884;2023-02-13T06:33:28;101302.16;;;-1.51;97.36
56721;BME280;53183;47.412;18.884;2023-02-13T06:35:56;101303.41;;;-1.35;96.85
56721;BME280;53183;47.412;18.884;2023-02-13T06:38:23;101312.47;;;-1.17;96.11
56721;BME280;53183;47.412;18.884;2023-02-13T06:40:51;101315.50;;;-0.98;95.69
56721;BME280;53183;47.412;18.884;2023-02-13T06:43:18;101317.81;;;-0.72;95.21
56721;BME280;53183;47.412;18.884;2023-02-13T06:45:45;101316.50;;;-0.50;93.40
56721;BME280;53183;47.412;18.884;2023-02-13T06:48:13;101317.03;;;-0.24;90.14
56721;BME280;53183;47.412;18.884;2023-02-13T06:50:40;101316.66;;;0.02;89.52
56721;BME280;53183;47.412;18.884;2023-02-13T06:53:08;101314.31;;;0.14;87.93
56721;BME280;53183;47.412;18.884;2023-02-13T06:55:35;101314.81;;;0.43;86.35
56721;BME280;53183;47.412;18.884;2023-02-13T06:58:02;101312.53;;;0.63;85.58
56721;BME280;53183;47.412;18.884;2023-02-13T07:00:30;101312.69;;;0.75;84.23
56721;BME280;53183;47.412;18.884;2023-02-13T07:03:04;101322.38;;;0.84;84.37
56721;BME280;53183;47.412;18.884;2023-02-13T07:05:33;101312.41;;;1.13;82.93
56721;BME280;53183;47.412;18.884;2023-02-13T07:08:00;101323.91;;;1.30;82.43
56721;BME280;53183;47.412;18.884;2023-02-13T07:10:27;101333.50;;;1.34;82.34
56721;BME280;53183;47.412;18.884;2023-02-13T07:12:54;101313.03;;;1.62;82.78
56721;BME280;53183;47.412;18.884;2023-02-13T07:15:33;101311.56;;;1.87;81.04
56721;BME280;53183;47.412;18.884;2023-02-13T07:18:01;101316.84;;;1.93;80.54
56721;BME280;53183;47.412;18.884;2023-02-13T07:20:29;101327.31;;;1.95;79.53
56721;BME280;53183;47.412;18.884;2023-02-13T07:23:00;101316.72;;;1.78;80.27
56721;BME280;53183;47.412;18.884;2023-02-13T07:25:28;101321.81;;;1.70;80.93
56721;BME280;53183;47.412;18.884;2023-02-13T07:28:00;101318.09;;;1.51;80.95
56721;BME280;53183;47.412;18.884;2023-02-13T07:30:29;101313.53;;;1.32;81.37
56721;BME280;53183;47.412;18.884;2023-02-13T07:32:59;101326.66;;;1.39;81.40
56721;BME280;53183;47.412;18.884;2023-02-13T07:35:26;101327.72;;;1.55;80.84
56721;BME280;53183;47.412;18.884;2023-02-13T07:37:55;101322.44;;;1.51;81.76
56721;BME280;53183;47.412;18.884;2023-02-13T07:40:22;101322.53;;;1.55;81.56
56721;BME280;53183;47.412;18.884;2023-02-13T07:42:49;101323.38;;;1.56;81.27
56721;BME280;53183;47.412;18.884;2023-02-13T07:45:16;101331.13;;;1.50;81.41
56721;BME280;53183;47.412;18.884;2023-02-13T07:47:43;101324.16;;;1.49;82.10
56721;BME280;53183;47.412;18.884;2023-02-13T07:50:11;101323.38;;;1.56;82.05
56721;BME280;53183;47.412;18.884;2023-02-13T07:52:38;101328.63;;;1.59;82.36
56721;BME280;53183;47.412;18.884;2023-02-13T07:55:06;101338.28;;;1.66;81.98
56721;BME280;53183;47.412;18.884;2023-02-13T07:57:33;101329.50;;;1.61;82.14
56721;BME280;53183;47.412;18.884;2023-02-13T08:00:00;101326.88;;;1.58;81.86
56721;BME280;53183;47.412;18.884;2023-02-13T08:02:37;101333.19;;;1.77;81.33
56721;BME280;53183;47.412;18.884;2023-02-13T08:05:05;101334.16;;;1.86;81.37
56721;BME280;53183;47.412;18.884;2023-02-13T08:07:33;101338.59;;;1.92;80.62
56721;BME280;53183;47.412;18.884;2023-02-13T08:10:00;101339.56;;;2.02;80.23
56721;BME280;53183;47.412;18.884;2023-02-13T08:12:47;101338.59;;;1.94;81.70
56721;BME280;53183;47.412;18.884;2023-02-13T08:15:14;101338.69;;;2.03;80.73
56721;BME280;53183;47.412;18.884;2023-02-13T08:17:41;101332.81;;;2.22;79.81
56721;BME280;53183;47.412;18.884;2023-02-13T08:20:09;101338.19;;;2.38;78.81
56721;BME280;53183;47.412;18.884;2023-02-13T08:22:37;101331.31;;;2.49;78.22
56721;BME280;53183;47.412;18.884;2023-02-13T08:25:06;101328.75;;;2.50;78.06
56721;BME280;53183;47.412;18.884;2023-02-13T08:27:34;101332.31;;;2.62;78.57
56721;BME280;53183;47.412;18.884;2023-02-13T08:30:02;101332.34;;;2.69;77.91
56721;BME280;53183;47.412;18.884;2023-02-13T08:32:29;101329.06;;;2.93;77.79
56721;BME280;53183;47.412;18.884;2023-02-13T08:35:05;101324.78;;;3.09;77.37
56721;BME280;53183;47.412;18.884;2023-02-13T08:37:32;101322.28;;;3.29;76.68
56721;BME280;53183;47.412;18.884;2023-02-13T08:39:59;101323.22;;;3.34;76.29
56721;BME280;53183;47.412;18.884;2023-02-13T08:42:27;101315.41;;;3.43;76.43
56721;BME280;53183;47.412;18.884;2023-02-13T08:44:54;101316.31;;;3.51;76.41
56721;BME280;53183;47.412;18.884;2023-02-13T08:47:21;101315.47;;;3.56;76.35
56721;BME280;53183;47.412;18.884;2023-02-13T08:49:48;101321.63;;;3.65;75.19
56721;BME280;53183;47.412;18.884;2023-02-13T08:52:15;101325.94;;;3.62;75.80
56721;BME280;53183;47.412;18.884;2023-02-13T08:54:43;101328.63;;;3.77;75.88
56721;BME280;53183;47.412;18.884;2023-02-13T08:57:11;101321.66;;;3.81;75.91
56721;BME280;53183;47.412;18.884;2023-02-13T08:59:38;101322.59;;;3.96;75.40
56721;BME280;53183;47.412;18.884;2023-02-13T09:02:05;101318.22;;;4.05;75.09
56721;BME280;53183;47.412;18.884;2023-02-13T09:04:32;101326.97;;;4.07;75.25
56721;BME280;53183;47.412;18.884;2023-02-13T09:07:00;101325.25;;;4.09;75.29
56721;BME280;53183;47.412;18.884;2023-02-13T09:09:27;101325.25;;;4.26;74.79
56721;BME280;53183;47.412;18.884;2023-02-13T09:11:54;101329.66;;;4.39;74.73
56721;BME280;53183;47.412;18.884;2023-02-13T09:14:23;101332.28;;;4.54;74.01
56721;BME280;53183;47.412;18.884;2023-02-13T09:16:51;101326.16;;;4.63;73.80
56721;BME280;53183;47.412;18.884;2023-02-13T09:19:18;101336.62;;;4.75;73.22
56721;BME280;53183;47.412;18.884;2023-02-13T09:21:45;101337.50;;;4.76;73.04
56721;BME280;53183;47.412;18.884;2023-02-13T09:24:12;101334.91;;;4.71;72.86
56721;BME280;53183;47.412;18.884;2023-02-13T09:26:40;101327.91;;;4.85;72.25
56721;BME280;53183;47.412;18.884;2023-02-13T09:29:07;101334.03;;;4.81;73.80
56721;BME280;53183;47.412;18.884;2023-02-13T09:31:34;101332.25;;;4.99;72.30
56721;BME280;53183;47.412;18.884;2023-02-13T09:34:01;101323.50;;;5.12;71.90
56721;BME280;53183;47.412;18.884;2023-02-13T09:36:28;101334.81;;;5.31;70.73
56721;BME280;53183;47.412;18.884;2023-02-13T09:38:56;101329.50;;;5.49;70.20
56721;BME280;53183;47.412;18.884;2023-02-13T09:41:29;101330.34;;;5.57;70.15
56721;BME280;53183;47.412;18.884;2023-02-13T09:44:00;101319.88;;;5.57;69.46
56721;BME280;53183;47.412;18.884;2023-02-13T09:46:35;101319.81;;;5.65;69.30
56721;BME280;53183;47.412;18.884;2023-02-13T09:49:12;101325.88;;;5.82;69.06
56721;BME280;53183;47.412;18.884;2023-02-13T09:51:41;101328.44;;;5.92;68.94
56721;BME280;53183;47.412;18.884;2023-02-13T09:54:14;101321.34;;;6.15;66.90
56721;BME280;53183;47.412;18.884;2023-02-13T10:00:07;101318.69;;;6.23;66.95
56721;BME280;53183;47.412;18.884;2023-02-13T10:17:10;101301.87;;;6.48;65.06
56721;BME280;53183;47.412;18.884;2023-02-13T10:19:47;101302.81;;;6.37;65.72
56721;BME280;53183;47.412;18.884;2023-02-13T10:22:19;101299.31;;;6.38;65.49
56721;BME280;53183;47.412;18.884;2023-02-13T10:24:55;101295.72;;;6.49;66.03
56721;BME280;53183;47.412;18.884;2023-02-13T10:27:34;101300.91;;;6.57;65.32
56721;BME280;53183;47.412;18.884;2023-02-13T10:35:18;101289.59;;;6.52;65.97
56721;BME280;53183;47.412;18.884;2023-02-13T10:37:47;101288.78;;;6.41;66.11
56721;BME280;53183;47.412;18.884;2023-02-13T10:40:18;101293.91;;;6.54;65.77
56721;BME280;53183;47.412;18.884;2023-02-13T10:42:52;101292.00;;;6.73;65.46
56721;BME280;53183;47.412;18.884;2023-02-13T10:45:50;101282.38;;;6.75;66.08
56721;BME280;53183;47.412;18.884;2023-02-13T10:48:48;101290.06;;;6.95;66.53
56721;BME280;53183;47.412;18.884;2023-02-13T10:57:10;101273.25;;;7.07;65.05
56721;BME280;53183;47.412;18.884;2023-02-13T11:02:29;101264.53;;;7.05;65.43
56721;BME280;53183;47.412;18.884;2023-02-13T11:05:01;101265.28;;;7.16;65.45
56721;BME280;53183;47.412;18.884;2023-02-13T11:07:29;101266.84;;;7.33;65.96
56721;BME280;53183;47.412;18.884;2023-02-13T11:10:06;101256.44;;;7.25;65.64
56721;BME280;53183;47.412;18.884;2023-02-13T11:12:39;101252.06;;;7.24;65.89
56721;BME280;53183;47.412;18.884;2023-02-13T11:15:35;101244.19;;;7.22;65.35
56721;BME280;53183;47.412;18.884;2023-02-13T11:18:13;101239.78;;;7.23;66.15
56721;BME280;53183;47.412;18.884;2023-02-13T11:20:42;101240.50;;;7.37;65.99
56721;BME280;53183;47.412;18.884;2023-02-13T11:28:30;101231.59;;;7.46;64.25
56721;BME280;53183;47.412;18.884;2023-02-13T11:31:21;101237.72;;;7.48;64.19
56721;BME280;53183;47.412;18.884;2023-02-13T11:33:49;101237.75;;;7.46;64.27
56721;BME280;53183;47.412;18.884;2023-02-13T11:36:31;101230.75;;;7.47;64.29
56721;BME280;53183;47.412;18.884;2023-02-13T11:39:06;101225.41;;;7.50;64.61
56721;BME280;53183;47.412;18.884;2023-02-13T11:41:45;101234.28;;;7.43;64.65
56721;BME280;53183;47.412;18.884;2023-02-13T11:44:23;101224.72;;;7.36;64.86
56721;BME280;53183;47.412;18.884;2023-02-13T11:46:53;101217.59;;;7.47;64.15
56721;BME280;53183;47.412;18.884;2023-02-13T11:49:22;101224.72;;;7.37;64.99
56721;BME280;53183;47.412;18.884;2023-02-13T11:51:55;101213.53;;;7.21;65.30
56721;BME280;53183;47.412;18.884;2023-02-13T11:54:34;101214.38;;;7.20;65.06
56721;BME280;53183;47.412;18.884;2023-02-13T11:59:43;101215.22;;;7.25;65.04
56721;BME280;53183;47.412;18.884;2023-02-13T12:02:15;101208.94;;;7.37;65.26
56721;BME280;53183;47.412;18.884;2023-02-13T12:04:45;101208.94;;;7.36;64.27
56721;BME280;53183;47.412;18.884;2023-02-13T12:07:20;101208.03;;;7.37;64.04
56721;BME280;53183;47.412;18.884;2023-02-13T12:09:54;101201.97;;;7.35;65.02
56721;BME280;53183;47.412;18.884;2023-02-13T12:12:43;101205.34;;;7.43;64.96
56721;BME280;53183;47.412;18.884;2023-02-13T12:18:02;101198.03;;;7.63;63.83
56721;BME280;53183;47.412;18.884;2023-02-13T12:37:22;101171.38;;;7.88;63.78
56721;BME280;53183;47.412;18.884;2023-02-13T12:39:57;101169.75;;;7.79;64.24
56721;BME280;53183;47.412;18.884;2023-02-13T12:42:50;101167.00;;;7.85;64.20
56721;BME280;53183;47.412;18.884;2023-02-13T13:07:18;101149.94;;;7.55;65.11
56721;BME280;53183;47.412;18.884;2023-02-13T13:13:11;101135.47;;;7.82;63.37
56721;BME280;53183;47.412;18.884;2023-02-13T13:22:30;101136.75;;;7.58;63.91
56721;BME280;53183;47.412;18.884;2023-02-13T13:24:32;101124.31;;;7.66;64.54
56721;BME280;53183;47.412;18.884;2023-02-13T13:27:02;101134.72;;;7.75;64.30
56721;BME280;53183;47.412;18.884;2023-02-13T13:29:45;101134.75;;;7.74;64.03
56721;BME280;53183;47.412;18.884;2023-02-13T13:32:18;101130.34;;;7.73;64.17
56721;BME280;53183;47.412;18.884;2023-02-13T13:34:47;101123.44;;;7.67;65.20
56721;BME280;53183;47.412;18.884;2023-02-13T13:42:51;101128.00;;;7.56;64.40
56721;BME280;53183;47.412;18.884;2023-02-13T13:48:16;101129.91;;;7.45;64.76
56721;BME280;53183;47.412;18.884;2023-02-13T13:50:46;101129.84;;;7.51;65.03
56721;BME280;53183;47.412;18.884;2023-02-13T13:53:16;101128.87;;;7.55;65.12
56721;BME280;53183;47.412;18.884;2023-02-13T13:58:31;101116.59;;;7.56;65.86
56721;BME280;53183;47.412;18.884;2023-02-13T14:01:22;101110.34;;;7.64;64.99
56721;BME280;53183;47.412;18.884;2023-02-13T14:04:58;101111.16;;;7.66;64.24
56721;BME280;53183;47.412;18.884;2023-02-13T14:11:55;101115.78;;;7.52;64.96
56721;BME280;53183;47.412;18.884;2023-02-13T14:17:00;101118.66;;;7.34;65.99
56721;BME280;53183;47.412;18.884;2023-02-13T14:19:34;101122.31;;;7.23;66.36
56721;BME280;53183;47.412;18.884;2023-02-13T14:24:56;101127.25;;;6.85;68.80
56721;BME280;53183;47.412;18.884;2023-02-13T14:27:37;101121.31;;;6.66;69.16
56721;BME280;53183;47.412;18.884;2023-02-13T14:30:52;101132.00;;;6.50;70.19
56721;BME280;53183;47.412;18.884;2023-02-13T14:32:55;101128.59;;;6.42;70.72
56721;BME280;53183;47.412;18.884;2023-02-13T14:37:53;101135.75;;;6.25;71.99
56721;BME280;53183;47.412;18.884;2023-02-13T14:42:58;101140.12;;;6.26;72.21
56721;BME280;53183;47.412;18.884;2023-02-13T14:45:30;101136.69;;;6.18;72.96
56721;BME280;53183;47.412;18.884;2023-02-13T14:48:05;101135.00;;;6.10;72.97
56721;BME280;53183;47.412;18.884;2023-02-13T14:50:45;101128.91;;;6.05;73.51
56721;BME280;53183;47.412;18.884;2023-02-13T14:53:25;101135.13;;;5.92;74.29
56721;BME280;53183;47.412;18.884;2023-02-13T14:56:09;101133.34;;;6.02;74.25
56721;BME280;53183;47.412;18.884;2023-02-13T14:58:50;101135.16;;;5.94;74.31
56721;BME280;53183;47.412;18.884;2023-02-13T15:01:49;101135.16;;;5.91;74.96
56721;BME280;53183;47.412;18.884;2023-02-13T15:04:36;101136.06;;;5.90;75.30
56721;BME280;53183;47.412;18.884;2023-02-13T15:07:15;101140.44;;;5.84;75.50
56721;BME280;53183;47.412;18.884;2023-02-13T15:10:16;101139.53;;;5.90;75.55
56721;BME280;53183;47.412;18.884;2023-02-13T15:12:58;101130.78;;;5.94;75.81
56721;BME280;53183;47.412;18.884;2023-02-13T15:15:34;101129.00;;;5.99;75.49
56721;BME280;53183;47.412;18.884;2023-02-13T15:18:15;101128.09;;;5.99;75.56
56721;BME280;53183;47.412;18.884;2023-02-13T15:20:45;101127.22;;;6.01;75.57
56721;BME280;53183;47.412;18.884;2023-02-13T15:23:32;101117.44;;;6.17;75.22
56721;BME280;53183;47.412;18.884;2023-02-13T15:26:04;101126.31;;;6.07;75.22
56721;BME280;53183;47.412;18.884;2023-02-13T15:28:34;101121.84;;;6.17;75.23
56721;BME280;53183;47.412;18.884;2023-02-13T15:31:17;101132.31;;;6.18;75.21
56721;BME280;53183;47.412;18.884;2023-02-13T15:33:49;101127.00;;;6.26;74.73
56721;BME280;53183;47.412;18.884;2023-02-13T15:36:22;101124.44;;;6.18;75.18
56721;BME280;53183;47.412;18.884;2023-02-13T15:39:00;101134.12;;;6.13;75.26
56721;BME280;53183;47.412;18.884;2023-02-13T15:41:49;101127.94;;;6.17;75.54
56721;BME280;53183;47.412;18.884;2023-02-13T15:44:32;101133.22;;;6.16;75.31
56721;BME280;53183;47.412;18.884;2023-02-13T15:47:07;101128.87;;;6.11;75.66
56721;BME280;53183;47.412;18.884;2023-02-13T15:49:42;101129.78;;;6.09;75.72
56721;BME280;53183;47.412;18.884;2023-02-13T15:54:53;101118.47;;;6.01;76.35
56721;BME280;53183;47.412;18.884;2023-02-13T15:57:21;101126.31;;;6.04;76.24